createdAt,value
2019-04-22T00:00:41.274Z,27.97
2019-04-22T00:03:11.313Z,25.83
2019-04-22T00:05:56.221Z,26.33
2019-04-22T00:08:30.973Z,27.40
2019-04-22T00:11:04.967Z,27.50
2019-04-22T00:13:32.400Z,26.73
2019-04-22T00:15:51.746Z,29.67
2019-04-22T00:18:40.418Z,29.50
2019-04-22T00:20:51.270Z,29.10
2019-04-22T00:23:19.883Z,28.97
2019-04-22T00:25:48.336Z,28.97
2019-04-22T00:28:17.285Z,30.73
2019-04-22T00:30:40.659Z,30.47
2019-04-22T00:33:13.060Z,28.90
2019-04-22T00:35:42.017Z,28.73
2019-04-22T00:38:17.312Z,31.17
2019-04-22T00:40:39.582Z,29.73
2019-04-22T00:43:06.495Z,28.67
2019-04-22T00:45:39.942Z,28.43
2019-04-22T00:48:09.131Z,28.77
2019-04-22T00:50:55.690Z,30.43
2019-04-22T00:53:04.026Z,29.23
2019-04-22T00:55:31.227Z,29.20
2019-04-22T00:58:01.268Z,29.47
2019-04-22T01:00:31.427Z,31.47
2019-04-22T01:03:07.478Z,30.60
2019-04-22T01:05:38.774Z,31.77
2019-04-22T01:08:09.776Z,31.60
2019-04-22T01:10:32.412Z,30.23
2019-04-22T01:12:57.002Z,31.27
2019-04-22T01:15:34.183Z,30.77
2019-04-22T01:17:57.436Z,30.60
2019-04-22T01:20:54.306Z,32.97
2019-04-22T01:22:56.636Z,31.97
2019-04-22T01:25:19.874Z,33.07
2019-04-22T01:27:44.647Z,33.07
2019-04-22T01:30:10.668Z,32.60
2019-04-22T01:32:32.839Z,33.27
2019-04-22T01:35:08.385Z,33.07
2019-04-22T01:37:44.420Z,34.30
2019-04-22T01:40:16.660Z,33.03
2019-04-22T01:42:48.540Z,33.93
2019-04-22T01:45:13.862Z,31.63
2019-04-22T01:47:36.804Z,33.27
2019-04-22T01:50:07.295Z,33.63
2019-04-22T01:52:38.005Z,33.43
2019-04-22T01:55:10.681Z,34.50
2019-04-22T01:57:30.354Z,35.87
2019-04-22T01:59:51.484Z,35.83
2019-04-22T02:02:30.305Z,33.53
2019-04-22T02:05:01.230Z,34.10
2019-04-22T02:07:25.394Z,35.17
2019-04-22T02:10:02.344Z,36.77
2019-04-22T02:12:19.927Z,35.20
2019-04-22T02:17:17.702Z,34.83
2019-04-22T02:19:53.141Z,35.77
2019-04-22T02:22:27.574Z,36.00
2019-04-22T02:24:46.705Z,35.40
2019-04-22T02:27:23.967Z,39.00
2019-04-22T02:29:44.268Z,39.10
2019-04-22T02:34:40.181Z,38.63
2019-04-22T02:39:39.216Z,39.63
2019-04-22T02:47:12.035Z,39.17
2019-04-22T02:51:55.865Z,39.33
2019-04-22T02:56:54.354Z,38.90
2019-04-22T02:59:24.196Z,38.50
2019-04-22T03:01:49.241Z,38.17
2019-04-22T03:04:32.704Z,41.23
2019-04-22T03:06:41.869Z,38.87
2019-04-22T03:09:18.111Z,39.63
2019-04-22T03:11:45.410Z,40.53
2019-04-22T03:14:14.540Z,39.87
2019-04-22T03:16:41.109Z,38.77
2019-04-22T03:21:52.735Z,38.30
2019-04-22T03:26:31.780Z,38.47
2019-04-22T03:28:54.836Z,39.20
2019-04-22T03:37:17.640Z,39.90
2019-04-22T03:44:28.895Z,41.80
2019-04-22T03:46:32.603Z,40.67
2019-04-22T03:49:10.887Z,40.87
2019-04-22T03:51:38.805Z,41.77
2019-04-22T03:54:03.530Z,44.47
2019-04-22T03:56:56.757Z,40.60
2019-04-22T03:59:05.115Z,41.07
2019-04-22T04:01:18.329Z,40.60
2019-04-22T04:03:50.701Z,40.43
2019-04-22T04:06:17.691Z,41.73
2019-04-22T04:08:46.359Z,40.30
2019-04-22T04:10:58.276Z,41.67
2019-04-22T04:13:33.488Z,42.03
2019-04-22T04:16:07.872Z,40.73
2019-04-22T04:18:41.112Z,43.37
2019-04-22T04:21:18.745Z,40.77
2019-04-22T04:23:37.803Z,46.13
2019-04-22T04:26:05.082Z,43.33
2019-04-22T04:28:46.544Z,40.40
2019-04-22T04:30:59.814Z,43.37
2019-04-22T04:33:25.945Z,44.70
2019-04-22T04:38:43.428Z,44.37
2019-04-22T04:43:18.358Z,43.50
2019-04-22T04:45:50.496Z,42.93
2019-04-22T04:48:18.471Z,45.60
2019-04-22T04:50:38.468Z,44.83
2019-04-22T04:53:14.551Z,46.10
2019-04-22T05:03:00.636Z,45.53
2019-04-22T05:08:16.728Z,48.98
2019-04-22T05:10:53.722Z,45.13
2019-04-22T05:12:56.702Z,46.30
2019-04-22T05:17:55.094Z,45.13
2019-04-22T05:20:27.324Z,45.50
2019-04-22T05:25:13.102Z,48.53
2019-04-22T05:27:39.718Z,49.03
2019-04-22T05:32:37.002Z,49.73
2019-04-22T05:35:00.581Z,48.77
2019-04-22T05:40:06.575Z,54.70
2019-04-22T05:42:35.171Z,47.43
2019-04-22T05:45:00.789Z,55.97
2019-04-22T05:47:20.830Z,51.67
2019-04-22T05:49:47.784Z,56.87
2019-04-22T05:52:14.986Z,61.23
2019-04-22T05:54:51.285Z,61.93
2019-04-22T05:57:15.533Z,61.67
2019-04-22T05:59:50.331Z,62.40
2019-04-22T06:02:13.543Z,59.27
2019-04-22T06:04:37.316Z,55.40
2019-04-22T06:07:06.618Z,52.23
2019-04-22T06:09:32.359Z,51.67
2019-04-22T06:11:58.978Z,47.10
2019-04-22T06:14:30.803Z,45.97
2019-04-22T06:17:03.640Z,45.17
2019-04-22T06:19:26.484Z,44.27
2019-04-22T06:21:57.876Z,44.27
2019-04-22T06:27:04.574Z,43.92
2019-04-22T06:29:23.810Z,41.97
2019-04-22T06:32:15.269Z,42.93
2019-04-22T06:42:07.858Z,41.60
2019-04-22T06:44:30.907Z,40.53
2019-04-22T06:47:00.617Z,40.70
2019-04-22T06:49:33.439Z,39.60
2019-04-22T06:52:05.633Z,39.70
2019-04-22T06:56:57.751Z,39.48
2019-04-22T06:59:19.009Z,40.20
2019-04-22T07:01:48.728Z,39.20
2019-04-22T07:04:10.196Z,39.13
2019-04-22T07:06:48.132Z,37.30
2019-04-22T07:11:41.730Z,37.57
2019-04-22T07:14:07.116Z,38.90
2019-04-22T07:16:39.355Z,37.40
2019-04-22T07:19:26.575Z,37.93
2019-04-22T07:21:33.512Z,37.60
2019-04-22T07:24:14.492Z,36.43
2019-04-22T07:26:24.968Z,38.33
2019-04-22T07:28:56.527Z,35.33
2019-04-22T07:31:23.537Z,36.57
2019-04-22T07:33:51.737Z,36.77
2019-04-22T07:38:44.777Z,34.60
2019-04-22T07:41:17.222Z,36.17
2019-04-22T07:43:59.851Z,33.97
2019-04-22T07:46:13.646Z,33.03
2019-04-22T07:48:53.128Z,32.80
2019-04-22T07:53:37.063Z,33.40
2019-04-22T07:56:08.394Z,20.30
2019-04-22T07:58:37.651Z,19.83
2019-04-22T08:01:12.213Z,21.82
2019-04-22T08:03:38.075Z,20.93
2019-04-22T08:10:59.327Z,20.30
2019-04-22T08:13:29.535Z,17.80
2019-04-22T08:15:54.185Z,19.10
2019-04-22T08:18:22.442Z,20.43
2019-04-22T08:20:54.093Z,20.67
2019-04-22T08:23:39.915Z,23.77
2019-04-22T08:25:47.569Z,23.40
2019-04-22T08:28:22.350Z,22.43
2019-04-22T08:30:47.681Z,25.60
2019-04-22T08:33:16.827Z,24.60
2019-04-22T08:38:11.956Z,27.20
2019-04-22T08:40:43.310Z,30.47
2019-04-22T08:43:15.522Z,30.90
2019-04-22T08:45:42.555Z,29.70
2019-04-22T08:48:00.935Z,31.07
2019-04-22T08:50:33.721Z,29.60
2019-04-22T08:53:05.757Z,28.00
2019-04-22T08:55:32.870Z,28.50
2019-04-22T08:58:16.479Z,29.00
2019-04-22T09:00:34.791Z,25.33
2019-04-22T09:02:59.528Z,23.80
2019-04-22T09:05:41.969Z,24.30
2019-04-22T09:07:52.696Z,22.90
2019-04-22T09:10:23.932Z,21.30
2019-04-22T09:12:57.869Z,21.50
2019-04-22T09:15:20.479Z,23.23
2019-04-22T09:17:47.305Z,23.70
2019-04-22T09:20:15.512Z,20.93
2019-04-22T09:22:41.112Z,20.63
2019-04-22T09:25:06.602Z,19.67
2019-04-22T09:27:48.378Z,18.63
2019-04-22T09:30:16.994Z,19.87
2019-04-22T09:32:38.674Z,16.03
2019-04-22T09:35:03.306Z,17.63
2019-04-22T09:37:36.386Z,15.13
2019-04-22T09:40:04.825Z,15.47
2019-04-22T09:42:31.862Z,15.10
2019-04-22T09:44:53.806Z,15.93
2019-04-22T09:47:30.751Z,13.97
2019-04-22T09:52:26.332Z,11.63
2019-04-22T09:57:21.772Z,12.40
2019-04-22T09:59:51.185Z,11.93
2019-04-22T10:02:25.016Z,11.50
2019-04-22T10:04:50.128Z,9.03
2019-04-22T10:07:16.464Z,8.67
2019-04-22T10:12:10.430Z,9.13
2019-04-22T10:14:38.490Z,10.37
2019-04-22T10:17:03.273Z,8.70
2019-04-22T10:19:31.402Z,7.33
2019-04-22T10:21:57.346Z,7.10
2019-04-22T10:24:30.100Z,8.83
2019-04-22T10:26:56.611Z,6.97
2019-04-22T10:29:24.758Z,8.30
2019-04-22T10:34:11.068Z,8.97
2019-04-22T10:36:25.485Z,6.93
2019-04-22T10:38:52.502Z,9.63
2019-04-22T10:41:18.847Z,7.67
2019-04-22T10:43:45.351Z,7.37
2019-04-22T10:46:12.163Z,7.07
2019-04-22T10:48:40.136Z,7.70
2019-04-22T10:51:06.754Z,7.40
2019-04-22T10:53:33.368Z,7.80
2019-04-22T10:56:00.852Z,8.90
2019-04-22T10:58:28.611Z,7.53
2019-04-22T11:00:56.157Z,8.53
2019-04-22T11:03:24.292Z,7.03
2019-04-22T11:05:50.781Z,8.47
2019-04-22T11:08:27.243Z,7.13
2019-04-22T11:11:00.710Z,8.37
2019-04-22T11:13:13.743Z,8.60
2019-04-22T11:15:40.547Z,7.13
2019-04-22T11:18:07.493Z,6.40
2019-04-22T11:20:33.838Z,6.80
2019-04-22T11:23:00.612Z,7.67
2019-04-22T11:25:27.766Z,7.53
2019-04-22T11:27:55.656Z,6.47
2019-04-22T11:30:25.920Z,7.07
2019-04-22T11:32:51.040Z,6.80
2019-04-22T11:35:19.480Z,9.03
2019-04-22T11:37:46.573Z,7.63
2019-04-22T11:40:19.282Z,8.00
2019-04-22T11:42:43.916Z,8.70
2019-04-22T11:45:10.998Z,6.50
2019-04-22T11:47:37.475Z,7.53
2019-04-22T11:50:06.295Z,9.57
2019-04-22T11:52:33.100Z,6.13
2019-04-22T11:55:00.994Z,8.60
2019-04-22T11:57:28.725Z,9.07
2019-04-22T11:59:56.504Z,8.83
2019-04-22T12:02:25.423Z,6.27
2019-04-22T12:04:53.934Z,7.67
2019-04-22T12:07:21.318Z,7.23
2019-04-22T12:09:47.867Z,6.43
2019-04-22T12:12:15.829Z,7.03
2019-04-22T12:14:42.427Z,10.10
2019-04-22T12:17:08.671Z,7.90
2019-04-22T12:19:35.196Z,7.63
2019-04-22T12:22:03.075Z,7.27
2019-04-22T12:24:30.272Z,7.27
2019-04-22T12:26:58.047Z,6.03
2019-04-22T12:29:24.806Z,7.77
2019-04-22T12:31:51.429Z,6.37
2019-04-22T12:34:17.683Z,9.60
2019-04-22T12:36:44.826Z,6.57
2019-04-22T12:39:11.562Z,6.10
2019-04-22T12:41:38.269Z,6.90
2019-04-22T12:44:05.273Z,6.60
2019-04-22T12:46:32.339Z,6.93
2019-04-22T12:48:58.575Z,8.60
2019-04-22T12:51:25.027Z,8.53
2019-04-22T12:53:52.622Z,7.07
2019-04-22T12:56:19.653Z,6.03
2019-04-22T12:58:47.558Z,8.30
2019-04-22T13:01:15.160Z,6.73
2019-04-22T13:03:42.595Z,7.90
2019-04-22T13:06:09.867Z,6.00
2019-04-22T13:08:36.187Z,6.87
2019-04-22T13:11:09.725Z,7.20
2019-04-22T13:13:31.363Z,7.10
2019-04-22T13:15:59.367Z,9.20
2019-04-22T13:18:35.534Z,8.87
2019-04-22T13:20:54.757Z,6.37
2019-04-22T13:23:22.176Z,7.27
2019-04-22T13:25:49.108Z,8.47
2019-04-22T13:28:15.563Z,8.13
2019-04-22T13:30:41.699Z,7.30
2019-04-22T13:33:07.889Z,9.80
2019-04-22T13:35:34.066Z,7.57
2019-04-22T13:38:01.258Z,9.33
2019-04-22T13:40:28.692Z,11.17
2019-04-22T13:42:55.669Z,8.23
2019-04-22T13:45:22.530Z,6.60
2019-04-22T13:48:09.932Z,8.27
2019-04-22T13:50:46.095Z,9.23
2019-04-22T13:53:28.971Z,7.47
2019-04-22T13:57:58.429Z,9.87
2019-04-22T14:00:18.439Z,10.53
2019-04-22T14:02:46.827Z,9.40
2019-04-22T14:05:16.880Z,9.50
2019-04-22T14:07:43.208Z,9.10
2019-04-22T14:10:09.640Z,7.83
2019-04-22T14:12:36.988Z,6.37
2019-04-22T14:15:07.087Z,7.07
2019-04-22T14:17:34.709Z,6.90
2019-04-22T14:20:02.645Z,5.97
2019-04-22T14:22:30.543Z,8.03
2019-04-22T14:24:58.676Z,8.13
2019-04-22T14:27:38.224Z,8.47
2019-04-22T14:29:55.591Z,15.07
2019-04-22T14:34:51.141Z,9.17
2019-04-22T14:37:18.608Z,8.97
2019-04-22T14:39:46.066Z,6.40
2019-04-22T14:42:31.308Z,6.77
2019-04-22T14:44:04.583Z,7.87
2019-04-22T14:47:34.604Z,8.13
2019-04-22T14:50:00.859Z,14.27
2019-04-22T14:52:30.692Z,8.73
2019-04-22T14:54:45.906Z,6.47
2019-04-22T14:57:01.166Z,6.73
2019-04-22T14:59:27.379Z,6.17
2019-04-22T15:01:54.143Z,8.67
2019-04-22T15:04:21.272Z,6.27
2019-04-22T15:06:50.133Z,7.47
2019-04-22T15:09:16.220Z,7.73
2019-04-22T15:11:54.840Z,5.97
2019-04-22T15:14:11.641Z,6.00
2019-04-22T15:16:57.197Z,6.33
2019-04-22T15:19:25.637Z,6.40
2019-04-22T15:21:52.568Z,8.30
2019-04-22T15:24:25.282Z,5.23
2019-04-22T15:26:53.587Z,6.90
2019-04-22T15:29:21.147Z,6.83
2019-04-22T15:31:49.182Z,5.53
2019-04-22T15:34:16.384Z,5.77
2019-04-22T15:36:44.337Z,10.20
2019-04-22T15:39:11.250Z,7.07
2019-04-22T15:41:41.098Z,14.40
2019-04-22T15:44:08.016Z,9.37
2019-04-22T15:46:34.999Z,6.23
2019-04-22T15:49:02.164Z,8.60
2019-04-22T15:51:30.595Z,7.73
2019-04-22T15:53:58.064Z,4.93
2019-04-22T15:56:24.340Z,8.40
2019-04-22T15:58:51.519Z,8.37
2019-04-22T16:01:23.955Z,5.57
2019-04-22T16:03:46.984Z,7.97
2019-04-22T16:06:13.367Z,6.27
2019-04-22T16:08:41.144Z,6.23
2019-04-22T16:11:07.411Z,6.90
2019-04-22T16:13:36.749Z,5.03
2019-04-22T16:16:02.681Z,5.00
2019-04-22T16:18:28.908Z,4.90
2019-04-22T16:20:56.852Z,5.37
2019-04-22T16:23:28.206Z,7.80
2019-04-22T16:25:56.432Z,9.03
2019-04-22T16:28:22.721Z,5.33
2019-04-22T16:30:49.036Z,6.30
2019-04-22T16:33:15.336Z,6.33
2019-04-22T16:35:42.645Z,5.57
2019-04-22T16:38:08.899Z,6.20
2019-04-22T16:40:35.161Z,5.80
2019-04-22T16:43:04.187Z,5.73
2019-04-22T16:45:29.766Z,7.03
2019-04-22T16:47:55.998Z,6.87
2019-04-22T16:50:23.118Z,7.93
2019-04-22T16:52:50.107Z,5.80
2019-04-22T16:55:17.014Z,6.43
2019-04-22T16:57:44.098Z,7.07
2019-04-22T17:00:11.246Z,5.37
2019-04-22T17:02:48.441Z,6.27
2019-04-22T17:05:17.903Z,7.17
2019-04-22T17:07:45.589Z,7.63
2019-04-22T17:10:13.524Z,5.53
2019-04-22T17:12:49.847Z,3.83
2019-04-22T17:15:10.679Z,5.27
2019-04-22T17:17:36.521Z,5.13
2019-04-22T17:20:05.110Z,10.97
2019-04-22T17:22:33.565Z,5.30
2019-04-22T17:25:00.294Z,6.60
2019-04-22T17:27:26.769Z,4.77
2019-04-22T17:29:54.525Z,7.57
2019-04-22T17:32:22.725Z,7.17
2019-04-22T17:34:49.685Z,6.67
2019-04-22T17:37:22.144Z,7.33
2019-04-22T17:39:57.321Z,7.23
2019-04-22T17:42:32.250Z,6.00
2019-04-22T17:45:24.337Z,5.93
2019-04-22T17:48:12.800Z,4.47
2019-04-22T17:50:48.487Z,5.63
2019-04-22T17:53:17.130Z,5.27
2019-04-22T17:55:44.484Z,5.03
2019-04-22T17:58:13.013Z,5.13
2019-04-22T18:00:30.322Z,8.50
2019-04-22T18:02:54.933Z,9.00
2019-04-22T18:05:13.014Z,9.50
2019-04-22T18:07:54.596Z,6.97
2019-04-22T18:13:01.806Z,7.23
2019-04-22T18:15:26.953Z,7.07
2019-04-22T18:17:58.838Z,7.07
2019-04-22T18:20:17.454Z,6.43
2019-04-22T18:22:39.595Z,8.07
2019-04-22T18:25:07.749Z,5.23
2019-04-22T18:28:09.118Z,8.83
2019-04-22T18:30:10.976Z,6.93
2019-04-22T18:32:41.089Z,6.83
2019-04-22T18:35:10.500Z,9.50
2019-04-22T18:37:40.990Z,6.37
2019-04-22T18:40:09.533Z,7.50
2019-04-22T18:42:31.637Z,7.07
2019-04-22T18:45:20.280Z,5.13
2019-04-22T18:47:26.730Z,6.33
2019-04-22T18:49:55.002Z,5.00
2019-04-22T18:52:47.101Z,5.40
2019-04-22T18:55:17.966Z,7.10
2019-04-22T18:58:02.270Z,8.23
2019-04-22T19:00:18.025Z,7.30
2019-04-22T19:02:54.073Z,8.90
2019-04-22T19:05:26.521Z,5.43
2019-04-22T19:08:12.576Z,6.43
2019-04-22T19:10:46.173Z,5.87
2019-04-22T19:13:31.315Z,6.40
2019-04-22T19:15:33.050Z,4.90
2019-04-22T19:18:02.120Z,6.47
2019-04-22T19:20:35.830Z,6.60
2019-04-22T19:22:58.923Z,7.17
2019-04-22T19:25:17.450Z,4.60
2019-04-22T19:27:53.612Z,5.57
2019-04-22T19:30:24.714Z,6.63
2019-04-22T19:32:51.214Z,5.80
2019-04-22T19:35:18.528Z,8.70
2019-04-22T19:37:41.399Z,6.10
2019-04-22T19:40:20.852Z,6.40
2019-04-22T19:42:52.573Z,7.27
2019-04-22T19:45:10.710Z,8.80
2019-04-22T19:47:48.129Z,8.93
2019-04-22T19:50:11.630Z,8.33
2019-04-22T19:52:50.959Z,8.40
2019-04-22T19:55:10.724Z,7.53
2019-04-22T19:57:34.587Z,6.77
2019-04-22T20:00:01.629Z,6.03
2019-04-22T20:02:31.569Z,7.27
2019-04-22T20:05:06.065Z,7.40
2019-04-22T20:07:31.775Z,6.43
2019-04-22T20:10:05.454Z,8.77
2019-04-22T20:12:23.513Z,4.77
2019-04-22T20:14:54.482Z,5.57
2019-04-22T20:17:31.807Z,7.13
2019-04-22T20:20:17.493Z,5.00
2019-04-22T20:22:28.326Z,6.20
2019-04-22T20:24:43.493Z,9.17
2019-04-22T20:27:39.255Z,4.97
2019-04-22T20:29:49.447Z,6.00
2019-04-22T20:32:18.343Z,10.37
2019-04-22T20:34:44.378Z,7.43
2019-04-22T20:37:17.983Z,6.53
2019-04-22T20:39:45.648Z,6.67
2019-04-22T20:42:23.558Z,6.10
2019-04-22T20:44:41.017Z,6.13
2019-04-22T20:47:00.354Z,5.60
2019-04-22T20:49:37.489Z,7.37
2019-04-22T20:54:28.587Z,6.17
2019-04-22T20:56:57.798Z,7.33
2019-04-22T20:59:23.916Z,8.30
2019-04-22T21:01:55.240Z,8.33
2019-04-22T21:04:14.569Z,7.10
2019-04-22T21:06:47.296Z,6.33
2019-04-22T21:09:22.102Z,6.43
2019-04-22T21:11:46.742Z,6.67
2019-04-22T21:14:11.608Z,5.93
2019-04-22T21:16:47.793Z,7.70
2019-04-22T21:19:18.633Z,4.37
2019-04-22T21:21:46.675Z,5.17
2019-04-22T21:24:00.316Z,9.67
2019-04-22T21:26:33.631Z,4.72
2019-04-22T21:29:03.693Z,5.25
2019-04-22T21:31:33.808Z,4.23
2019-04-22T21:33:56.141Z,6.07
2019-04-22T21:36:40.408Z,4.97
2019-04-22T21:38:53.112Z,6.83
2019-04-22T21:41:29.347Z,4.77
2019-04-22T21:43:54.762Z,3.87
2019-04-22T21:46:27.891Z,4.00
2019-04-22T21:48:50.917Z,2.90
2019-04-22T21:51:19.173Z,3.73
2019-04-22T21:53:52.205Z,4.73
2019-04-22T21:56:31.882Z,5.07
2019-04-22T21:58:50.629Z,3.37
2019-04-22T22:03:56.499Z,4.17
2019-04-22T22:06:11.769Z,7.40
2019-04-22T22:08:55.451Z,5.67
2019-04-22T22:11:13.925Z,5.27
2019-04-22T22:13:45.409Z,9.13
2019-04-22T22:16:10.339Z,4.90
2019-04-22T22:18:36.487Z,3.27
2019-04-22T22:21:31.382Z,3.73
2019-04-22T22:23:38.212Z,5.17
2019-04-22T22:26:04.069Z,6.30
2019-04-22T22:28:45.048Z,9.57
2019-04-22T22:31:08.828Z,3.73
2019-04-22T22:33:32.055Z,5.50
2019-04-22T22:35:57.894Z,4.63
2019-04-22T22:38:26.226Z,3.80
2019-04-22T22:40:36.735Z,4.37
2019-04-22T22:43:11.716Z,4.47
2019-04-22T22:45:37.384Z,4.07
2019-04-22T22:48:21.551Z,5.53
2019-04-22T22:50:44.683Z,3.07
2019-04-22T22:53:25.595Z,3.23
2019-04-22T22:55:46.387Z,3.87
2019-04-22T22:58:14.190Z,4.70
2019-04-22T23:00:35.746Z,7.67
2019-04-22T23:03:36.699Z,6.17
2019-04-22T23:05:37.628Z,4.50
2019-04-22T23:08:09.573Z,4.53
2019-04-22T23:10:44.322Z,7.63
2019-04-22T23:13:08.110Z,7.40
2019-04-22T23:15:27.782Z,5.50
2019-04-22T23:17:39.755Z,4.20
2019-04-22T23:20:07.267Z,3.87
2019-04-22T23:22:51.102Z,5.30
2019-04-22T23:25:27.535Z,3.43
2019-04-22T23:28:04.476Z,4.67
2019-04-22T23:30:23.917Z,6.40
2019-04-22T23:33:03.420Z,5.37
2019-04-22T23:35:33.151Z,4.13
2019-04-22T23:37:57.309Z,3.40
2019-04-22T23:40:35.568Z,5.43
2019-04-22T23:43:00.097Z,5.27
2019-04-22T23:45:37.290Z,6.87
2019-04-22T23:47:47.379Z,4.07
2019-04-22T23:50:29.418Z,5.23
2019-04-22T23:52:59.551Z,4.17
2019-04-22T23:55:28.035Z,3.90
2019-04-22T23:57:56.923Z,3.90
